KCKB/CKB METAR and TAF weather

Enter ICAO airport designator
Station Type Date Time Source
KCKB METAR 2018/01/24 06:53 UTC NOAA

KCKB 240653Z 29006KT 9SM UP BKN010 OVC014 02/00 A3001 RMK AO2 RAB0555E28UPB28 CIG 007V012 SLP163 P0000 T00170000


Station Type Date Time Source
KCKB Decoded METAR 2018/01/24 06:53 UTC NOAA

HARRISON/MARION REGIONAL, WV, United States (KCKB) 39-18N 080-13W 360M
Jan 24, 2018 - 01:53 AM EST / 2018.01.24 0653 UTC
Wind: from the WNW (290 degrees) at 7 MPH (6 KT):0
Visibility: 9 mile(s):0
Sky conditions: overcast
Weather: precipitation
Precipitation last hour: A trace
Temperature: 35.1 F (1.7 C)
Dew Point: 32.0 F (0.0 C)
Relative Humidity: 88%
Pressure (altimeter): 30.01 in. Hg (1016 hPa)
ob: KCKB 240653Z 29006KT 9SM UP BKN010 OVC014 02/00 A3001 RMK AO2 RAB0555E28UPB28 CIG 007V012 SLP163 P0000 T00170000
cycle: 7

Station Type Date Time Source
KCKB TAF 2018/01/24 06:33 UTC NOAA

TAF KCKB 240531Z 2406/2506 26012G25KT P6SM -RA FEW016 BKN028 OVC035
FM240800 28010KT 3SM -SN OVC019
FM241200 28010KT P6SM OVC023


Example: see airport list